Galva, IL (61434)

3:40 AM CDT on March 29, 2017 (GMT -0500)
La Fayette (Knox County) | | Change Station

Elev 751 ft 41.10 °N, 90.00 °W | Updated 25 seconds ago

Overcast
Overcast
41.4 °F
Feels Like 37 °F
N
6.0
Wind Variable Wind from NE

Today
High -- | Low -- °F
--% Chance of Precip.
Yesterday
High -- | Low -- °F
Precip. -- in
Pressure 30.14 in
Visibility 10.0 miles
Clouds Overcast 600 ft
Windchill 37 °F
Dew Point 39 °F
Humidity 91%
Rainfall 0.00 in
Snow Depth Not available.
6:47 AM 7:22 PM
New Moon, 2% visible
METAR KGBG 290835Z AUTO 10008G15KT 10SM OVC006 05/04 A3014 RMK AO2 T00460037
Pressure 30.14 in
Visibility 10.0 miles
Clouds Overcast 600 ft
Windchill 37 °F
Dew Point 39 °F
Humidity 91%
Rainfall 0.00 in
Snow Depth Not available.
6:47 AM 7:22 PM
New Moon, 2% visible
METAR KGBG 290835Z AUTO 10008G15KT 10SM OVC006 05/04 A3014 RMK AO2 T00460037

Get Severe Weather Alerts

Thanks for signing up!

Be on the lookout for a verification email in your inbox.

You'll start receiving the daily forecast at 8 AM.

×

10-Day Weather Forecast

Almanac

Astronomy

Mar. 29, 2017 Rise Set
Actual Time
Civil Twilight
Nautical Twilight
Astronomical Twilight
Moon
Length of Visible Light
Length of Day
Tomorrow will be .
, % of the Moon is Illuminated

Today's Extremes

State Highs State Lows

Community

WunderPhotos

Upload Photos

1,962,540 photos uploaded!

WunderBlog® & News

Nearby

Air Quality

  Air Quality AQ Index Pollutant
Not available.

Snow Depth

Station Depth Elevation

Earthquake Activity

City Distance Mag. Time & Date
Minimum magnitude displayed is 2.5.

Earthquake Activity

City Distance Mag. Time & Date
Minimum magnitude displayed is 2.5.

Coastal Water Temperatures

Place Temperature

Stations

Nearby Weather Stations

Station Location Temp. Windchill Dew Point Humidity Wind Precip. Elev Updated Type
                   

Watches & Warnings

There are currently no watches in effect.